Terminal Aerodrome Forecast
Issued by NWS

Home | Current Version | Previous Version | Text Only | Print | Product List | Glossary On
Versions: 1 2 3 4 5 6 7 8 9 10 11 12 13 14 15 16 17 18 19 20 21 22
000
FTUS43 KAPX 232339
TAFAPN
TAF
KAPN 232339Z 2400/2424 10005KT P6SM BKN015 OVC025
     FM240200 09004KT 4SM -SHRA BR OVC012
     FM240500 VRB03KT 2SM -SHRA BR OVC005
     FM240700 VRB03KT 1SM BR OVC003
     FM241400 04004KT 3SM BR OVC005
     FM241600 06008KT 5SM BR OVC050=

USA.gov is the U.S. government's official web portal to all federal, state and local government web resources and services.